MV Hartura — ICBM — position and weather

sailwx.info

Track history (hours):
 
Tides and Currents Weather Stations Pressure Air Temp Water Temp Dewpoint Dewpoint Depression Visibility Wind Speed Wind Dir Waves Ship Positions

MV Hartura

Last reported at 2017-Nov-09 18:05 UTC. Time now 2017-Nov-23 00:27 UTC.
Position N 41°04' E 001°46'.
Warning: this ship's position is 13 days out of date.

Length 140 m; draft 7.2 m.

Type: Cargo ship. MMSI: 247285200.

Date/timePositionNaut miles runAvg speedWind from/ knotsBaromVisibWave heightAir tempDewpointWater temp
2017-Nov-09 18:05N 41°04' E 001°46'110.7
2017-Nov-09 18:00N 41°05' E 001°47'510.6
2017-Nov-09 17:31N 41°08' E 001°53'  
2017-Nov-07 02:49N 43°18' E 007°09'410.5
2017-Nov-07 02:27N 43°21' E 007°12'81 1.8
2017-Nov-05 06:13N 43°26' E 009°03'3 9.7
2017-Nov-05 05:52N 43°23' E 009°06'910.0
2017-Nov-05 05:00N 43°18' E 009°15'270 6.2
2017-Nov-03 09:37N 40°46' E 014°16'1 6.9
2017-Nov-03 09:29N 40°45' E 014°16'510.2
2017-Nov-03 09:00N 40°41' E 014°14'144 4.2
2017-Nov-01 22:37N 39°53' E 017°12'110.0
2017-Nov-01 22:30N 39°54' E 017°11'5 9.9
2017-Nov-01 22:00N 39°59' E 017°11'510.1
2017-Nov-01 21:30N 40°04' E 017°10'510.1
2017-Nov-01 21:00N 40°09' E 017°10'510.0
2017-Nov-01 20:30N 40°14' E 017°09'510.1
2017-Nov-01 20:00N 40°19' E 017°08'510.0
2017-Nov-01 19:30N 40°24' E 017°07'4 8.9
2017-Nov-01 19:00N 40°27' E 017°12'2 3.4
2017-Nov-01 18:28N 40°28' E 017°13'0 0.0
2017-Nov-01 01:58N 40°28' E 017°13'0 0.0
2017-Nov-01 01:28N 40°28' E 017°13'0 0.0
2017-Nov-01 00:58N 40°28' E 017°13'0 0.0
2017-Nov-01 00:28N 40°28' E 017°13'0 0.0
2017-Oct-31 23:58N 40°28' E 017°13'0 0.0
2017-Oct-31 23:28N 40°28' E 017°13'0 0.0
2017-Oct-31 22:58N 40°28' E 017°13'0 0.0
2017-Oct-31 22:28N 40°28' E 017°13'0 0.0
2017-Oct-31 21:58N 40°28' E 017°13'0 0.0
2017-Oct-31 21:28N 40°28' E 017°13'0 0.0
2017-Oct-31 20:58N 40°28' E 017°13'0 0.0
2017-Oct-31 20:28N 40°28' E 017°13'0 0.0
2017-Oct-31 19:58N 40°28' E 017°13'0 0.0
2017-Oct-31 19:28N 40°28' E 017°13'0 0.0
2017-Oct-31 18:58N 40°28' E 017°13'0 0.0
2017-Oct-31 18:28N 40°28' E 017°13'0 0.0
2017-Oct-31 17:58N 40°28' E 017°13'0 0.0
2017-Oct-31 17:28N 40°28' E 017°13'0 0.0
2017-Oct-31 16:58N 40°28' E 017°13'0 0.0
2017-Oct-31 16:28N 40°28' E 017°13'0 0.0
2017-Oct-31 15:58N 40°28' E 017°13'0 0.0
2017-Oct-31 15:28N 40°28' E 017°13'0 0.0
2017-Oct-31 14:58N 40°28' E 017°13'0 0.0
2017-Oct-31 14:28N 40°28' E 017°13'0 0.0
2017-Oct-31 13:58N 40°28' E 017°13'0 0.0
2017-Oct-31 13:28N 40°28' E 017°13'0 0.0
2017-Oct-31 12:58N 40°28' E 017°13'0 0.0
2017-Oct-31 12:28N 40°28' E 017°13'0 0.0
2017-Oct-31 11:58N 40°28' E 017°13'0 0.0
2017-Oct-31 11:28N 40°28' E 017°13'0 0.0
2017-Oct-31 10:58N 40°28' E 017°13'0 0.0
2017-Oct-31 10:28N 40°28' E 017°13'0 0.0
2017-Oct-31 09:58N 40°28' E 017°13'0 0.0
2017-Oct-31 09:28N 40°28' E 017°13'0 0.0
2017-Oct-31 08:58N 40°28' E 017°13'0 0.0
2017-Oct-31 08:28N 40°28' E 017°13'0 0.0
2017-Oct-31 07:58N 40°28' E 017°13'0 0.0
2017-Oct-31 07:28N 40°28' E 017°13'0 0.0
2017-Oct-31 06:58N 40°28' E 017°13'0 0.0
2017-Oct-31 06:28N 40°28' E 017°13'0 0.0
2017-Oct-31 05:58N 40°28' E 017°13'0 0.0
2017-Oct-31 05:28N 40°28' E 017°13'0 0.0
2017-Oct-31 04:58N 40°28' E 017°13'0 0.0
2017-Oct-31 04:28N 40°28' E 017°13'0 0.0
2017-Oct-31 03:58N 40°28' E 017°13'0 0.0
2017-Oct-31 03:28N 40°28' E 017°13'0 0.0
2017-Oct-31 02:58N 40°28' E 017°13'0 0.0
2017-Oct-31 02:28N 40°28' E 017°13'0 0.0
2017-Oct-31 01:58N 40°28' E 017°13'0 0.0
2017-Oct-31 01:28N 40°28' E 017°13'0 0.0
2017-Oct-31 00:58N 40°28' E 017°13'0 0.0
2017-Oct-31 00:28N 40°28' E 017°13'0 0.0
2017-Oct-30 23:58N 40°28' E 017°13'0 0.0
2017-Oct-30 23:28N 40°28' E 017°13'0 0.0
2017-Oct-30 22:58N 40°28' E 017°13'0 0.0
2017-Oct-30 22:28N 40°28' E 017°13'0 0.0
2017-Oct-30 21:58N 40°28' E 017°13'0 0.0
2017-Oct-30 21:28N 40°28' E 017°13'0 0.0
2017-Oct-30 20:58N 40°28' E 017°13'0 0.0
2017-Oct-30 20:28N 40°28' E 017°13'0 0.0
2017-Oct-30 19:58N 40°28' E 017°13'0 0.0
2017-Oct-30 19:28N 40°29' E 017°13'0 0.0
2017-Oct-30 18:58N 40°28' E 017°13'0 0.0
2017-Oct-30 18:28N 40°28' E 017°13'  
Track history (hours):
 
Tides and Currents Weather Stations Pressure Air Temp Water Temp Dewpoint Dewpoint Depression Visibility Wind Speed Wind Dir Waves Ship Positions

MV Hartura

Last reported at 2017-Nov-09 18:05 UTC. Time now 2017-Nov-23 00:27 UTC.
Position N 41°04' E 001°46'.
Warning: this ship's position is 13 days out of date.

Length 140 m; draft 7.2 m.

Type: Cargo ship. MMSI: 247285200.

Date/timePositionNaut miles runAvg speedWind from/ knotsBaromVisibWave heightAir tempDewpointWater temp
2017-Nov-09 18:05N 41°04' E 001°46'110.7
2017-Nov-09 18:00N 41°05' E 001°47'510.6
2017-Nov-09 17:31N 41°08' E 001°53'  
2017-Nov-07 02:49N 43°18' E 007°09'410.5
2017-Nov-07 02:27N 43°21' E 007°12'81 1.8
2017-Nov-05 06:13N 43°26' E 009°03'3 9.7
2017-Nov-05 05:52N 43°23' E 009°06'910.0
2017-Nov-05 05:00N 43°18' E 009°15'270 6.2
2017-Nov-03 09:37N 40°46' E 014°16'1 6.9
2017-Nov-03 09:29N 40°45' E 014°16'510.2
2017-Nov-03 09:00N 40°41' E 014°14'144 4.2
2017-Nov-01 22:37N 39°53' E 017°12'110.0
2017-Nov-01 22:30N 39°54' E 017°11'5 9.9
2017-Nov-01 22:00N 39°59' E 017°11'510.1
2017-Nov-01 21:30N 40°04' E 017°10'510.1
2017-Nov-01 21:00N 40°09' E 017°10'510.0
2017-Nov-01 20:30N 40°14' E 017°09'510.1
2017-Nov-01 20:00N 40°19' E 017°08'510.0
2017-Nov-01 19:30N 40°24' E 017°07'4 8.9
2017-Nov-01 19:00N 40°27' E 017°12'2 3.4
2017-Nov-01 18:28N 40°28' E 017°13'0 0.0
2017-Nov-01 01:58N 40°28' E 017°13'0 0.0
2017-Nov-01 01:28N 40°28' E 017°13'0 0.0
2017-Nov-01 00:58N 40°28' E 017°13'0 0.0
2017-Nov-01 00:28N 40°28' E 017°13'0 0.0
2017-Oct-31 23:58N 40°28' E 017°13'0 0.0
2017-Oct-31 23:28N 40°28' E 017°13'0 0.0
2017-Oct-31 22:58N 40°28' E 017°13'0 0.0
2017-Oct-31 22:28N 40°28' E 017°13'0 0.0
2017-Oct-31 21:58N 40°28' E 017°13'0 0.0
2017-Oct-31 21:28N 40°28' E 017°13'0 0.0
2017-Oct-31 20:58N 40°28' E 017°13'0 0.0
2017-Oct-31 20:28N 40°28' E 017°13'0 0.0
2017-Oct-31 19:58N 40°28' E 017°13'0 0.0
2017-Oct-31 19:28N 40°28' E 017°13'0 0.0
2017-Oct-31 18:58N 40°28' E 017°13'0 0.0
2017-Oct-31 18:28N 40°28' E 017°13'0 0.0
2017-Oct-31 17:58N 40°28' E 017°13'0 0.0
2017-Oct-31 17:28N 40°28' E 017°13'0 0.0
2017-Oct-31 16:58N 40°28' E 017°13'0 0.0
2017-Oct-31 16:28N 40°28' E 017°13'0 0.0
2017-Oct-31 15:58N 40°28' E 017°13'0 0.0
2017-Oct-31 15:28N 40°28' E 017°13'0 0.0
2017-Oct-31 14:58N 40°28' E 017°13'0 0.0
2017-Oct-31 14:28N 40°28' E 017°13'0 0.0
2017-Oct-31 13:58N 40°28' E 017°13'0 0.0
2017-Oct-31 13:28N 40°28' E 017°13'0 0.0
2017-Oct-31 12:58N 40°28' E 017°13'0 0.0
2017-Oct-31 12:28N 40°28' E 017°13'0 0.0
2017-Oct-31 11:58N 40°28' E 017°13'0 0.0
2017-Oct-31 11:28N 40°28' E 017°13'0 0.0
2017-Oct-31 10:58N 40°28' E 017°13'0 0.0
2017-Oct-31 10:28N 40°28' E 017°13'0 0.0
2017-Oct-31 09:58N 40°28' E 017°13'0 0.0
2017-Oct-31 09:28N 40°28' E 017°13'0 0.0
2017-Oct-31 08:58N 40°28' E 017°13'0 0.0
2017-Oct-31 08:28N 40°28' E 017°13'0 0.0
2017-Oct-31 07:58N 40°28' E 017°13'0 0.0
2017-Oct-31 07:28N 40°28' E 017°13'0 0.0
2017-Oct-31 06:58N 40°28' E 017°13'0 0.0
2017-Oct-31 06:28N 40°28' E 017°13'0 0.0
2017-Oct-31 05:58N 40°28' E 017°13'0 0.0
2017-Oct-31 05:28N 40°28' E 017°13'0 0.0
2017-Oct-31 04:58N 40°28' E 017°13'0 0.0
2017-Oct-31 04:28N 40°28' E 017°13'0 0.0
2017-Oct-31 03:58N 40°28' E 017°13'0 0.0
2017-Oct-31 03:28N 40°28' E 017°13'0 0.0
2017-Oct-31 02:58N 40°28' E 017°13'0 0.0
2017-Oct-31 02:28N 40°28' E 017°13'0 0.0
2017-Oct-31 01:58N 40°28' E 017°13'0 0.0
2017-Oct-31 01:28N 40°28' E 017°13'0 0.0
2017-Oct-31 00:58N 40°28' E 017°13'0 0.0
2017-Oct-31 00:28N 40°28' E 017°13'0 0.0
2017-Oct-30 23:58N 40°28' E 017°13'0 0.0
2017-Oct-30 23:28N 40°28' E 017°13'0 0.0
2017-Oct-30 22:58N 40°28' E 017°13'0 0.0
2017-Oct-30 22:28N 40°28' E 017°13'0 0.0
2017-Oct-30 21:58N 40°28' E 017°13'0 0.0
2017-Oct-30 21:28N 40°28' E 017°13'0 0.0
2017-Oct-30 20:58N 40°28' E 017°13'0 0.0
2017-Oct-30 20:28N 40°28' E 017°13'0 0.0
2017-Oct-30 19:58N 40°28' E 017°13'0 0.0
2017-Oct-30 19:28N 40°29' E 017°13'0 0.0
2017-Oct-30 18:58N 40°28' E 017°13'0 0.0
2017-Oct-30 18:28N 40°28' E 017°13'  

Dump ship's entire track history